createdAt,value
2019-04-28T00:01:52.378Z,76.40
2019-04-28T00:04:21.454Z,74.90
2019-04-28T00:06:51.761Z,76.50
2019-04-28T00:09:21.563Z,76.30
2019-04-28T00:11:51.747Z,76.80
2019-04-28T00:14:21.902Z,76.40
2019-04-28T00:16:51.272Z,78.00
2019-04-28T00:19:21.454Z,77.20
2019-04-28T00:21:54.317Z,76.30
2019-04-28T00:24:24.478Z,77.30
2019-04-28T00:26:57.677Z,78.50
2019-04-28T00:29:37.621Z,79.20
2019-04-28T00:32:01.090Z,79.70
2019-04-28T00:34:31.153Z,78.10
2019-04-28T00:37:01.459Z,77.40
2019-04-28T00:39:31.061Z,79.20
2019-04-28T00:42:03.033Z,78.30
2019-04-28T00:44:31.422Z,79.70
2019-04-28T00:47:01.145Z,78.30
2019-04-28T00:49:48.201Z,78.10
2019-04-28T00:52:18.078Z,78.30
2019-04-28T00:54:48.018Z,78.50
2019-04-28T00:57:16.738Z,78.80
2019-04-28T00:59:54.524Z,78.20
2019-04-28T01:02:26.198Z,78.20
2019-04-28T01:04:54.695Z,78.60
2019-04-28T01:07:23.424Z,78.60
2019-04-28T01:09:51.986Z,77.70
2019-04-28T01:12:21.281Z,79.40
2019-04-28T01:14:52.239Z,78.90
2019-04-28T01:17:21.874Z,78.00
2019-04-28T01:19:52.066Z,78.90
2019-04-28T01:22:20.620Z,78.70
2019-04-28T01:24:51.540Z,77.70
2019-04-28T01:27:24.581Z,78.40
2019-04-28T01:30:05.507Z,78.30
2019-04-28T01:32:31.117Z,77.30
2019-04-28T01:34:59.890Z,77.10
2019-04-28T01:37:29.577Z,76.90
2019-04-28T01:39:59.696Z,77.00
2019-04-28T01:42:30.118Z,77.10
2019-04-28T01:45:00.654Z,77.20
2019-04-28T01:47:30.544Z,77.30
2019-04-28T01:50:01.747Z,77.30
2019-04-28T01:52:30.325Z,76.90
2019-04-28T01:55:00.429Z,76.60
2019-04-28T01:57:29.892Z,75.80
2019-04-28T01:59:59.778Z,76.20
2019-04-28T02:02:30.117Z,76.80
2019-04-28T02:04:59.852Z,76.20
2019-04-28T02:07:30.634Z,76.90
2019-04-28T02:10:00.543Z,76.40
2019-04-28T02:12:30.478Z,76.50
2019-04-28T02:15:00.953Z,76.20
2019-04-28T02:17:30.425Z,76.50
2019-04-28T02:20:00.587Z,77.00
2019-04-28T02:22:31.911Z,76.40
2019-04-28T02:25:00.458Z,77.10
2019-04-28T02:27:30.235Z,76.50
2019-04-28T02:30:00.099Z,76.80
2019-04-28T02:32:30.966Z,77.10
2019-04-28T02:35:01.167Z,76.90
2019-04-28T02:37:30.575Z,77.10
2019-04-28T02:40:00.730Z,77.20
2019-04-28T02:42:30.900Z,77.40
2019-04-28T02:45:00.780Z,77.50
2019-04-28T02:47:33.747Z,77.80
2019-04-28T02:50:01.457Z,77.40
2019-04-28T02:52:48.024Z,76.80
2019-04-28T02:55:16.600Z,77.10
2019-04-28T02:57:45.145Z,76.60
2019-04-28T03:00:13.862Z,77.30
2019-04-28T03:02:42.431Z,78.10
2019-04-28T03:05:11.762Z,77.50
2019-04-28T03:07:41.120Z,77.30
2019-04-28T03:10:10.940Z,77.10
2019-04-28T03:12:41.404Z,76.70
2019-04-28T03:15:10.446Z,78.60
2019-04-28T03:17:40.652Z,79.50
2019-04-28T03:20:10.981Z,78.40
2019-04-28T03:22:40.784Z,80.20
2019-04-28T03:25:11.598Z,80.80
2019-04-28T03:27:41.838Z,79.40
2019-04-28T03:30:33.318Z,81.90
2019-04-28T03:33:10.619Z,81.30
2019-04-28T03:35:32.693Z,81.40
2019-04-28T03:38:01.439Z,81.40
2019-04-28T03:40:31.018Z,82.40
2019-04-28T03:43:03.025Z,82.50
2019-04-28T03:45:32.282Z,81.80
2019-04-28T03:48:00.868Z,81.90
2019-04-28T03:50:31.359Z,83.10
2019-04-28T03:53:01.055Z,83.10
2019-04-28T03:55:31.736Z,82.80
2019-04-28T03:58:00.908Z,82.90
2019-04-28T04:00:31.233Z,83.00
2019-04-28T04:03:00.792Z,83.10
2019-04-28T04:05:30.657Z,83.40
2019-04-28T04:08:00.934Z,83.70
2019-04-28T04:10:31.285Z,84.10
2019-04-28T04:13:01.511Z,84.50
2019-04-28T04:15:49.513Z,84.50
2019-04-28T04:18:20.786Z,84.50
2019-04-28T04:20:50.952Z,84.40
2019-04-28T04:23:22.754Z,85.30
2019-04-28T04:25:51.262Z,84.50
2019-04-28T04:28:20.641Z,84.50
2019-04-28T04:30:50.732Z,84.90
2019-04-28T04:33:20.862Z,84.80
2019-04-28T04:35:51.808Z,85.20
2019-04-28T04:38:21.739Z,83.80
2019-04-28T04:40:51.274Z,84.00
2019-04-28T04:43:21.082Z,85.50
2019-04-28T04:45:51.971Z,85.50
2019-04-28T04:48:21.533Z,87.10
2019-04-28T04:50:51.025Z,85.00
2019-04-28T04:53:20.779Z,84.30
2019-04-28T04:55:50.717Z,85.00
2019-04-28T04:58:21.431Z,86.50
2019-04-28T05:01:10.496Z,86.40
2019-04-28T05:03:40.208Z,86.20
2019-04-28T05:06:26.531Z,85.90
2019-04-28T05:08:55.069Z,84.90
2019-04-28T05:11:23.543Z,85.70
2019-04-28T05:13:52.086Z,85.70
2019-04-28T05:16:20.690Z,84.70
2019-04-28T05:18:49.925Z,84.70
2019-04-28T05:21:19.197Z,84.60
2019-04-28T05:23:56.039Z,83.20
2019-04-28T05:26:26.120Z,83.40
2019-04-28T05:28:54.753Z,83.50
2019-04-28T05:31:24.438Z,83.30
2019-04-28T05:33:53.059Z,85.40
2019-04-28T05:36:22.152Z,84.60
2019-04-28T05:38:50.752Z,83.30
2019-04-28T05:41:19.673Z,82.90
2019-04-28T05:43:48.353Z,82.70
2019-04-28T05:46:16.897Z,81.90
2019-04-28T05:48:51.283Z,83.80
2019-04-28T05:51:24.810Z,83.30
2019-04-28T05:54:07.024Z,83.90
2019-04-28T05:56:37.209Z,84.00
2019-04-28T05:59:13.390Z,83.50
2019-04-28T06:02:00.479Z,85.00
2019-04-28T06:04:30.458Z,84.10
2019-04-28T06:07:00.772Z,84.50
2019-04-28T06:09:33.385Z,84.50
2019-04-28T06:12:02.933Z,84.50
2019-04-28T06:14:31.517Z,84.90
2019-04-28T06:17:03.957Z,86.20
2019-04-28T06:19:31.374Z,85.90
2019-04-28T06:22:00.047Z,85.00
2019-04-28T06:24:28.690Z,85.40
2019-04-28T06:26:57.351Z,86.00
2019-04-28T06:29:25.890Z,85.10
2019-04-28T06:31:54.436Z,85.10
2019-04-28T06:34:22.999Z,84.60
2019-04-28T06:36:51.551Z,84.60
2019-04-28T06:39:20.101Z,84.50
2019-04-28T06:41:48.703Z,85.30
2019-04-28T06:44:17.384Z,85.00
2019-04-28T06:46:45.981Z,84.40
2019-04-28T06:49:14.582Z,84.40
2019-04-28T06:51:43.119Z,83.60
2019-04-28T06:56:49.783Z,82.60
2019-04-28T06:59:18.434Z,78.90
2019-04-28T07:01:47.113Z,79.50
2019-04-28T07:04:15.802Z,80.70
2019-04-28T07:06:44.433Z,80.70
2019-04-28T07:09:14.418Z,81.80
2019-04-28T07:11:42.963Z,82.50
2019-04-28T07:14:11.700Z,82.70
2019-04-28T07:16:40.304Z,83.30
2019-04-28T07:19:08.889Z,83.80
2019-04-28T07:21:47.934Z,84.20
2019-04-28T07:24:21.136Z,84.20
2019-04-28T07:26:49.897Z,84.00
2019-04-28T07:29:18.478Z,84.50
2019-04-28T07:31:47.112Z,84.90
2019-04-28T07:34:15.804Z,84.40
2019-04-28T07:36:44.485Z,84.50
2019-04-28T07:39:13.050Z,84.70
2019-04-28T07:41:41.824Z,84.90
2019-04-28T07:44:10.351Z,85.20
2019-04-28T07:46:38.968Z,86.40
2019-04-28T07:49:07.473Z,87.40
2019-04-28T07:51:37.820Z,86.70
2019-04-28T07:54:10.859Z,86.20
2019-04-28T07:56:39.428Z,86.60
2019-04-28T07:59:07.996Z,86.40
2019-04-28T08:01:36.625Z,86.50
2019-04-28T08:04:05.250Z,86.90
2019-04-28T08:06:33.848Z,86.60
2019-04-28T08:09:02.575Z,86.80
2019-04-28T08:11:31.140Z,88.10
2019-04-28T08:13:59.718Z,88.70
2019-04-28T08:16:28.361Z,88.00
2019-04-28T08:18:56.985Z,88.40
2019-04-28T08:21:25.592Z,87.40
2019-04-28T08:23:54.211Z,86.80
2019-04-28T08:26:22.891Z,86.70
2019-04-28T08:28:51.566Z,86.60
2019-04-28T08:31:21.986Z,87.30
2019-04-28T08:34:01.655Z,87.00
2019-04-28T08:36:22.613Z,87.20
2019-04-28T08:38:52.790Z,86.80
2019-04-28T08:41:21.431Z,86.70
2019-04-28T08:43:49.966Z,86.80
2019-04-28T08:46:18.528Z,86.70
2019-04-28T08:48:47.180Z,85.90
2019-04-28T08:51:15.908Z,86.30
2019-04-28T08:53:44.710Z,86.80
2019-04-28T08:56:13.461Z,85.40
2019-04-28T08:58:42.278Z,84.40
2019-04-28T09:01:11.068Z,83.30
2019-04-28T09:03:39.674Z,83.30
2019-04-28T09:06:08.592Z,83.70
2019-04-28T09:08:37.229Z,81.50
2019-04-28T09:11:05.885Z,82.20
2019-04-28T09:13:36.453Z,80.90
2019-04-28T09:16:04.786Z,81.10
2019-04-28T09:18:33.515Z,80.00
2019-04-28T09:21:02.512Z,80.80
2019-04-28T09:23:32.470Z,78.40
2019-04-28T09:26:02.147Z,78.10
2019-04-28T09:28:30.989Z,77.10
2019-04-28T09:30:59.667Z,76.30
2019-04-28T09:33:28.273Z,75.40
2019-04-28T09:35:56.857Z,74.60
2019-04-28T09:38:25.482Z,74.60
2019-04-28T09:40:54.106Z,74.50
2019-04-28T09:43:24.358Z,74.40
2019-04-28T09:45:54.599Z,74.20
2019-04-28T09:48:23.337Z,74.20
2019-04-28T09:50:52.006Z,74.10
2019-04-28T09:53:20.876Z,72.10
2019-04-28T09:55:49.470Z,74.00
2019-04-28T09:58:18.125Z,74.40
2019-04-28T10:00:46.728Z,74.00
2019-04-28T10:03:15.466Z,72.60
2019-04-28T10:05:44.052Z,72.50
2019-04-28T10:08:15.345Z,70.80
2019-04-28T10:10:44.026Z,70.90
2019-04-28T10:13:14.196Z,71.00
2019-04-28T10:15:42.847Z,70.20
2019-04-28T10:18:11.529Z,69.40
2019-04-28T10:20:40.248Z,69.30
2019-04-28T10:23:08.921Z,69.50
2019-04-28T10:25:37.636Z,69.00
2019-04-28T10:28:06.371Z,68.50
2019-04-28T10:30:54.303Z,69.00
2019-04-28T10:33:23.031Z,68.20
2019-04-28T10:35:51.674Z,68.00
2019-04-28T10:38:20.424Z,68.60
2019-04-28T10:40:53.373Z,67.60
2019-04-28T10:43:22.117Z,68.30
2019-04-28T10:45:51.319Z,63.40
2019-04-28T10:48:20.122Z,63.80
2019-04-28T10:50:48.812Z,62.90
2019-04-28T10:53:17.537Z,61.10
2019-04-28T10:55:46.183Z,62.10
2019-04-28T10:58:15.018Z,61.50
2019-04-28T11:00:43.705Z,62.20
2019-04-28T11:03:12.456Z,61.30
2019-04-28T11:05:42.793Z,62.50
2019-04-28T11:08:14.320Z,63.50
2019-04-28T11:10:42.933Z,63.00
2019-04-28T11:13:11.614Z,63.00
2019-04-28T11:15:40.331Z,64.60
2019-04-28T11:18:10.735Z,64.70
2019-04-28T11:20:39.398Z,64.40
2019-04-28T11:23:08.109Z,65.10
2019-04-28T11:25:36.766Z,65.10
2019-04-28T11:28:05.919Z,65.30
2019-04-28T11:30:34.580Z,66.30
2019-04-28T11:33:14.098Z,66.40
2019-04-28T11:35:44.103Z,66.00
2019-04-28T11:38:12.710Z,66.50
2019-04-28T11:40:41.363Z,66.60
2019-04-28T11:43:09.954Z,66.00
2019-04-28T11:45:38.699Z,66.30
2019-04-28T11:48:07.395Z,65.20
2019-04-28T11:50:36.062Z,65.90
2019-04-28T11:53:04.840Z,65.40
2019-04-28T11:55:33.457Z,65.10
2019-04-28T11:58:02.081Z,65.00
2019-04-28T12:00:32.479Z,65.60
2019-04-28T12:03:01.200Z,66.10
2019-04-28T12:05:34.634Z,66.60
2019-04-28T12:08:01.837Z,66.80
2019-04-28T12:10:35.014Z,67.10
2019-04-28T12:13:05.357Z,65.80
2019-04-28T12:15:44.477Z,65.30
2019-04-28T12:18:31.007Z,65.10
2019-04-28T12:20:59.766Z,64.90
2019-04-28T12:23:28.363Z,65.40
2019-04-28T12:25:57.085Z,65.40
2019-04-28T12:28:25.748Z,64.30
2019-04-28T12:30:54.471Z,63.90
2019-04-28T12:33:23.159Z,62.70
2019-04-28T12:35:51.750Z,62.10
2019-04-28T12:38:20.443Z,61.80
2019-04-28T12:40:49.178Z,62.00
2019-04-28T12:43:17.744Z,61.90
2019-04-28T12:45:46.474Z,62.10
2019-04-28T12:48:15.111Z,60.40
2019-04-28T12:50:53.951Z,62.30
2019-04-28T12:53:23.331Z,61.40
2019-04-28T12:55:53.391Z,62.20
2019-04-28T12:58:21.994Z,60.00
2019-04-28T13:01:01.023Z,59.70
2019-04-28T13:03:43.316Z,59.70
2019-04-28T13:06:13.694Z,59.10
2019-04-28T13:08:42.384Z,58.70
2019-04-28T13:11:13.190Z,58.10
2019-04-28T13:13:41.889Z,58.50
2019-04-28T13:16:10.558Z,57.80
2019-04-28T13:18:39.262Z,57.70
2019-04-28T13:21:07.938Z,56.80
2019-04-28T13:23:36.885Z,55.30
2019-04-28T13:26:08.553Z,55.10
2019-04-28T13:28:37.133Z,56.20
2019-04-28T13:31:05.938Z,54.90
2019-04-28T13:33:34.562Z,54.80
2019-04-28T13:36:14.158Z,54.80
2019-04-28T13:38:33.528Z,54.30
2019-04-28T13:41:02.287Z,56.30
2019-04-28T13:43:30.891Z,55.00
2019-04-28T13:46:01.531Z,55.30
2019-04-28T13:48:30.142Z,54.00
2019-04-28T13:50:58.770Z,54.50
2019-04-28T13:53:27.352Z,55.10
2019-04-28T13:55:57.752Z,54.90
2019-04-28T13:58:28.200Z,55.00
2019-04-28T14:01:07.377Z,55.60
2019-04-28T14:03:43.523Z,55.10
2019-04-28T14:06:27.275Z,56.00
2019-04-28T14:08:44.336Z,56.50
2019-04-28T14:11:13.134Z,56.60
2019-04-28T14:13:41.741Z,57.20
2019-04-28T14:16:10.439Z,57.80
2019-04-28T14:18:39.000Z,57.20
2019-04-28T14:21:08.039Z,57.80
2019-04-28T14:23:36.793Z,57.80
2019-04-28T14:26:06.056Z,57.70
2019-04-28T14:28:34.990Z,58.00
2019-04-28T14:31:05.802Z,58.30
2019-04-28T14:33:34.435Z,57.80
2019-04-28T14:36:03.419Z,58.20
2019-04-28T14:38:32.121Z,58.30
2019-04-28T14:41:02.381Z,57.50
2019-04-28T14:43:31.152Z,57.50
2019-04-28T14:45:59.855Z,57.50
2019-04-28T14:48:28.703Z,57.20
2019-04-28T14:50:57.396Z,57.00
2019-04-28T14:53:26.083Z,57.40
2019-04-28T14:55:56.104Z,55.80
2019-04-28T14:58:25.192Z,57.10
2019-04-28T15:00:58.548Z,56.60
2019-04-28T15:03:28.934Z,57.00
2019-04-28T15:06:08.585Z,56.80
2019-04-28T15:08:44.940Z,56.90
2019-04-28T15:11:33.278Z,56.80
2019-04-28T15:14:01.976Z,56.50
2019-04-28T15:16:30.841Z,57.00
2019-04-28T15:18:59.596Z,56.30
2019-04-28T15:21:28.265Z,55.90
2019-04-28T15:23:56.919Z,55.10
2019-04-28T15:26:25.476Z,55.50
2019-04-28T15:28:54.099Z,56.50
2019-04-28T15:31:22.727Z,57.10
2019-04-28T15:33:52.846Z,57.90
2019-04-28T15:36:22.126Z,58.60
2019-04-28T15:38:50.766Z,58.00
2019-04-28T15:41:21.990Z,57.30
2019-04-28T15:43:50.007Z,57.60
2019-04-28T15:46:18.593Z,58.20
2019-04-28T15:48:47.254Z,57.90
2019-04-28T15:51:15.795Z,57.20
2019-04-28T15:53:49.538Z,56.50
2019-04-28T15:56:20.456Z,56.90
2019-04-28T15:58:49.135Z,57.50
2019-04-28T16:01:18.214Z,57.70
2019-04-28T16:03:47.240Z,58.00
2019-04-28T16:06:17.103Z,58.00
2019-04-28T16:08:46.424Z,57.70
2019-04-28T16:11:15.059Z,58.20
2019-04-28T16:13:43.724Z,58.10
2019-04-28T16:16:12.351Z,58.60
2019-04-28T16:18:40.981Z,59.00
2019-04-28T16:21:09.615Z,58.60
2019-04-28T16:23:39.345Z,58.70
2019-04-28T16:26:07.889Z,58.70
2019-04-28T16:28:36.501Z,59.00
2019-04-28T16:31:05.213Z,58.90
2019-04-28T16:33:34.362Z,58.90
2019-04-28T16:36:02.985Z,58.90
2019-04-28T16:38:31.930Z,58.90
2019-04-28T16:41:00.779Z,59.00
2019-04-28T16:43:29.765Z,59.20
2019-04-28T16:45:58.440Z,59.50
2019-04-28T16:48:28.779Z,59.30
2019-04-28T16:50:57.942Z,59.00
2019-04-28T16:53:26.579Z,59.20
2019-04-28T16:55:56.865Z,58.60
2019-04-28T16:58:42.421Z,58.60
2019-04-28T17:01:22.599Z,59.20
2019-04-28T17:03:52.898Z,59.50
2019-04-28T17:06:21.534Z,59.20
2019-04-28T17:08:50.375Z,59.30
2019-04-28T17:11:19.072Z,58.90
2019-04-28T17:13:47.844Z,59.10
2019-04-28T17:16:17.921Z,59.70
2019-04-28T17:18:46.600Z,60.00
2019-04-28T17:21:16.483Z,60.00
2019-04-28T17:23:47.392Z,60.00
2019-04-28T17:26:16.109Z,60.10
2019-04-28T17:28:44.741Z,60.60
2019-04-28T17:31:13.887Z,60.70
2019-04-28T17:33:44.051Z,61.30
2019-04-28T17:36:12.694Z,60.80
2019-04-28T17:38:42.338Z,61.40
2019-04-28T17:41:11.114Z,61.40
2019-04-28T17:43:39.896Z,61.40
2019-04-28T17:46:08.565Z,61.70
2019-04-28T17:48:48.789Z,61.60
2019-04-28T17:51:18.598Z,61.20
2019-04-28T17:53:49.016Z,61.50
2019-04-28T17:56:19.594Z,61.50
2019-04-28T17:58:50.542Z,61.60
2019-04-28T18:01:32.890Z,62.20
2019-04-28T18:04:19.157Z,62.10
2019-04-28T18:06:52.640Z,62.30
2019-04-28T18:09:21.696Z,62.20
2019-04-28T18:11:50.719Z,62.50
2019-04-28T18:14:19.499Z,62.30
2019-04-28T18:16:50.513Z,63.40
2019-04-28T18:19:23.839Z,62.60
2019-04-28T18:21:52.586Z,63.30
2019-04-28T18:24:23.196Z,62.80
2019-04-28T18:26:55.203Z,63.80
2019-04-28T18:29:25.170Z,63.60
2019-04-28T18:31:59.139Z,63.30
2019-04-28T18:34:32.431Z,64.00
2019-04-28T18:37:03.115Z,64.10
2019-04-28T18:39:33.394Z,64.20
2019-04-28T18:42:21.775Z,63.80
2019-04-28T18:44:50.920Z,64.00
2019-04-28T18:47:20.530Z,64.50
2019-04-28T18:49:50.715Z,64.60
2019-04-28T18:52:19.960Z,65.00
2019-04-28T18:54:48.649Z,65.40
2019-04-28T18:57:20.257Z,65.60
2019-04-28T18:59:50.487Z,65.50
2019-04-28T19:02:30.402Z,66.00
2019-04-28T19:05:00.678Z,66.10
2019-04-28T19:07:34.934Z,66.30
2019-04-28T19:10:05.675Z,66.20
2019-04-28T19:12:36.000Z,67.60
2019-04-28T19:15:10.353Z,66.70
2019-04-28T19:17:50.065Z,66.90
2019-04-28T19:20:19.436Z,66.80
2019-04-28T19:22:48.178Z,66.70
2019-04-28T19:25:21.273Z,67.90
2019-04-28T19:27:52.941Z,67.50
2019-04-28T19:30:25.240Z,67.20
2019-04-28T19:32:53.944Z,68.20
2019-04-28T19:35:22.675Z,67.40
2019-04-28T19:37:51.439Z,68.00
2019-04-28T19:40:20.064Z,68.50
2019-04-28T19:42:49.189Z,68.40
2019-04-28T19:45:21.264Z,69.20
2019-04-28T19:47:50.529Z,69.00
2019-04-28T19:50:19.725Z,69.50
2019-04-28T19:52:56.515Z,69.50
2019-04-28T19:55:29.356Z,70.00
2019-04-28T19:58:03.227Z,69.90
2019-04-28T20:00:37.051Z,69.20
2019-04-28T20:03:07.521Z,69.90
2019-04-28T20:05:37.890Z,69.80
2019-04-28T20:08:06.922Z,70.30
2019-04-28T20:10:35.839Z,71.50
2019-04-28T20:13:07.090Z,72.20
2019-04-28T20:15:36.847Z,72.80
2019-04-28T20:18:05.649Z,71.90
2019-04-28T20:20:34.890Z,72.20
2019-04-28T20:23:03.902Z,72.70
2019-04-28T20:25:32.580Z,72.10
2019-04-28T20:28:02.827Z,71.90
2019-04-28T20:30:31.523Z,72.40
2019-04-28T20:33:06.934Z,72.80
2019-04-28T20:35:32.114Z,71.90
2019-04-28T20:38:02.400Z,72.90
2019-04-28T20:40:48.201Z,72.60
2019-04-28T20:43:22.317Z,72.60
2019-04-28T20:45:50.993Z,73.80
2019-04-28T20:48:23.832Z,74.30
2019-04-28T20:50:52.506Z,73.30
2019-04-28T20:53:21.064Z,75.10
2019-04-28T20:55:49.650Z,73.50
2019-04-28T20:58:18.297Z,73.30
2019-04-28T21:00:46.858Z,75.10
2019-04-28T21:03:15.421Z,75.20
2019-04-28T21:05:44.021Z,75.10
2019-04-28T21:08:16.859Z,76.40
2019-04-28T21:10:45.426Z,76.30
2019-04-28T21:13:14.023Z,75.60
2019-04-28T21:15:42.647Z,74.60
2019-04-28T21:18:12.055Z,74.60
2019-04-28T21:20:40.617Z,76.00
2019-04-28T21:23:09.221Z,75.80
2019-04-28T21:25:37.907Z,76.10
2019-04-28T21:28:06.694Z,75.60
2019-04-28T21:30:35.659Z,76.10
2019-04-28T21:33:04.314Z,75.60
2019-04-28T21:35:37.184Z,76.70
2019-04-28T21:38:05.738Z,77.40
2019-04-28T21:40:34.239Z,76.20
2019-04-28T21:43:04.514Z,76.10
2019-04-28T21:45:43.989Z,77.40
2019-04-28T21:48:37.200Z,78.60
2019-04-28T21:51:07.985Z,78.40
2019-04-28T21:53:36.619Z,77.80
2019-04-28T21:56:05.422Z,76.90
2019-04-28T21:58:33.954Z,76.80
2019-04-28T22:01:03.228Z,76.30
2019-04-28T22:03:31.814Z,77.30
2019-04-28T22:06:00.374Z,76.70
2019-04-28T22:08:28.931Z,76.70
2019-04-28T22:10:57.537Z,77.90
2019-04-28T22:13:26.075Z,77.80
2019-04-28T22:15:54.584Z,77.70
2019-04-28T22:18:23.126Z,77.90
2019-04-28T22:20:51.640Z,76.90
2019-04-28T22:23:24.607Z,77.60
2019-04-28T22:25:53.182Z,78.50
2019-04-28T22:28:21.772Z,76.90
2019-04-28T22:30:50.347Z,77.40
2019-04-28T22:33:18.889Z,78.00
2019-04-28T22:35:47.506Z,77.40
2019-04-28T22:38:16.016Z,77.80
2019-04-28T22:40:44.585Z,77.70
2019-04-28T22:43:13.159Z,80.00
2019-04-28T22:45:41.750Z,78.80
2019-04-28T22:48:11.950Z,78.70
2019-04-28T22:50:45.827Z,78.10
2019-04-28T22:53:15.996Z,79.50
2019-04-28T22:55:46.218Z,78.60
2019-04-28T22:58:22.428Z,78.80
2019-04-28T23:00:57.202Z,78.40
2019-04-28T23:03:27.427Z,78.50
2019-04-28T23:05:55.995Z,78.10
2019-04-28T23:08:24.498Z,77.90
2019-04-28T23:10:53.054Z,78.50
2019-04-28T23:13:21.664Z,78.00
2019-04-28T23:15:50.379Z,77.80
2019-04-28T23:18:19.029Z,78.70
2019-04-28T23:20:52.202Z,77.70
2019-04-28T23:23:20.781Z,78.60
2019-04-28T23:25:49.370Z,78.30
2019-04-28T23:28:17.921Z,78.20
2019-04-28T23:30:46.999Z,78.30
2019-04-28T23:33:15.512Z,79.40
2019-04-28T23:35:44.135Z,79.80
2019-04-28T23:38:12.643Z,79.70
2019-04-28T23:40:42.906Z,80.60
2019-04-28T23:43:19.118Z,79.50
2019-04-28T23:45:47.695Z,79.60
2019-04-28T23:48:16.257Z,80.80
2019-04-28T23:50:55.356Z,80.60
2019-04-28T23:53:41.811Z,80.40
2019-04-28T23:56:10.409Z,80.90
2019-04-28T23:58:38.869Z,80.40
